Key West, FL

21:52 EDT le 29 juillet 2016 (GMT -0400)
Big Coppitt Key Gulfside | | Change Station

Alt. 31 ft 24.60 °N, 81.67 °W | Updated 13 minutes ago

Scattered Clouds
Nuages épars
84.7 ° F
Paraît 92 ° F
N
2.2
Vent Variable Vent de SSE

Aujourd'hui
Haut(e) -- | Bas -- ° F
--% Risque de précip.
Hier
Haut(e) -- | Bas -- ° F
Precip. -- pouce
Pression 30.03 pouce
Visibilité 10.0 Miles terrestres
Nuages Nuages épars 2300 ft
Nuages épars 25000 ft
indice de chaleur 92 ° F
Point de rosée 74 ° F
Humidité 70%
Précipitations 0.00 pouce
Profondeur de la couche neigeuse Non disponible.
6:53 AM 8:12 PM
Lune descendante, 17% visible
METAR KNQX 300053Z 11003KT 10SM SCT023 SCT250 29/24 A3003 RMK AO2 SLP168 T02890244 $
Pression 30.03 pouce
Visibilité 10.0 Miles terrestres
Nuages Nuages épars 2300 ft
Nuages épars 25000 ft
indice de chaleur 92 ° F
Point de rosée 74 ° F
Humidité 70%
Précipitations 0.00 pouce
Profondeur de la couche neigeuse Non disponible.
6:53 AM 8:12 PM
Lune descendante, 17% visible
METAR KNQX 300053Z 11003KT 10SM SCT023 SCT250 29/24 A3003 RMK AO2 SLP168 T02890244 $

10-Day Weather Forecast

Almanac

Astronomie

Jul. 29, 2016 Lever Coucher
Temps réel
Crépuscule civil
Crépuscule nautique
Crépuscule astronomique
Lune
Durée de lumière visible
Longueur du jour
Tomorrow will be .
, % of the Moon is Illuminated

Extrêmes aujourd'hui

State Highs State Lows

Community

WunderPhotos

Upload Photos

1,928,479 Photos téléchargées !

WunderBlog® & News

Nearby

Qualité de l'air

  Qualité de l'air Indice de la qualité de l'air Polluant
Not available.

Épaisseur de neige

Station Depth Altitude

Activité sismique

Ville Distance Mag. Time & Date
Minimum magnitude displayed is 2.5.

Températures des eaux côtières

Lieu Température

Stations

Stations météo à proximité

Emplacement de la station Température Refroidissement éolien Point de rosée Humidité Vent Precip. Alt. Mise à jour Type
                   

Watches & Warnings

There are currently no watches in effect.